createdAt,value
2018-06-01T00:01:34.414Z,96.70
2018-06-01T00:04:02.687Z,96.70
2018-06-01T00:06:30.976Z,96.50
2018-06-01T00:08:59.245Z,96.60
2018-06-01T00:11:27.541Z,96.30
2018-06-01T00:13:55.040Z,96.30
2018-06-01T00:16:22.565Z,96.30
2018-06-01T00:18:50.061Z,96.20
2018-06-01T00:21:17.561Z,96.20
2018-06-01T00:23:45.122Z,96.10
2018-06-01T00:26:13.384Z,95.90
2018-06-01T00:28:41.668Z,96.00
2018-06-01T00:31:09.924Z,95.70
2018-06-01T00:33:37.426Z,95.70
2018-06-01T00:36:04.949Z,95.60
2018-06-01T00:38:32.447Z,95.20
2018-06-01T00:40:59.968Z,95.50
2018-06-01T00:43:27.477Z,95.10
2018-06-01T00:45:55.013Z,94.80
2018-06-01T00:48:22.513Z,94.70
2018-06-01T00:50:50.033Z,94.80
2018-06-01T00:53:17.556Z,95.00
2018-06-01T00:55:45.061Z,95.10
2018-06-01T00:58:12.621Z,95.10
2018-06-01T01:00:40.120Z,95.20
2018-06-01T01:03:07.649Z,95.10
2018-06-01T01:05:35.144Z,95.60
2018-06-01T01:08:02.665Z,95.40
2018-06-01T01:10:30.165Z,95.60
2018-06-01T01:12:57.673Z,95.70
2018-06-01T01:15:25.189Z,95.70
2018-06-01T01:17:52.681Z,95.60
2018-06-01T01:20:20.201Z,95.70
2018-06-01T01:22:47.707Z,95.70
2018-06-01T01:25:15.225Z,95.70
2018-06-01T01:27:43.489Z,95.90
2018-06-01T01:30:10.986Z,95.70
2018-06-01T01:32:38.512Z,95.90
2018-06-01T01:35:06.009Z,96.00
2018-06-01T01:37:33.533Z,95.90
2018-06-01T01:40:01.030Z,95.90
2018-06-01T01:42:29.533Z,96.40
2018-06-01T01:44:57.033Z,96.00
2018-06-01T01:47:25.301Z,96.20
2018-06-01T01:49:53.642Z,96.20
2018-06-01T01:52:21.148Z,96.30
2018-06-01T01:54:49.446Z,96.20
2018-06-01T01:57:16.952Z,96.20
2018-06-01T01:59:44.444Z,96.10
2018-06-01T02:02:12.728Z,96.20
2018-06-01T02:04:40.989Z,96.10
2018-06-01T02:07:08.512Z,96.10
2018-06-01T02:09:36.005Z,95.90
2018-06-01T02:12:03.526Z,96.00
2018-06-01T02:14:31.020Z,96.20
2018-06-01T02:16:58.547Z,96.50
2018-06-01T02:19:26.044Z,96.90
2018-06-01T02:21:53.545Z,96.90
2018-06-01T02:24:21.064Z,96.90
2018-06-01T02:26:49.329Z,97.30
2018-06-01T02:29:16.841Z,97.30
2018-06-01T02:31:44.334Z,97.20
2018-06-01T02:34:11.852Z,97.40
2018-06-01T02:36:39.344Z,97.60
2018-06-01T02:39:06.832Z,97.80
2018-06-01T02:41:35.116Z,98.20
2018-06-01T02:44:03.376Z,98.40
2018-06-01T02:46:30.900Z,98.40
2018-06-01T02:48:58.391Z,98.60
2018-06-01T02:51:25.910Z,98.80
2018-06-01T02:53:53.404Z,98.80
2018-06-01T02:56:21.680Z,99.30
2018-06-01T02:58:49.197Z,99.20
2018-06-01T03:01:16.693Z,99.60
2018-06-01T03:03:44.215Z,99.80
2018-06-01T03:06:11.708Z,99.90
2018-06-01T03:08:39.226Z,99.90
2018-06-01T03:11:06.720Z,99.90
2018-06-01T03:13:34.220Z,99.90
2018-06-01T03:16:02.503Z,99.90
2018-06-01T03:18:29.996Z,99.90
2018-06-01T03:20:57.512Z,99.90
2018-06-01T03:23:25.773Z,99.90
2018-06-01T03:25:54.062Z,99.90
2018-06-01T03:28:22.324Z,99.90
2018-06-01T03:30:49.815Z,99.90
2018-06-01T03:33:17.328Z,99.90
2018-06-01T03:35:44.819Z,99.90
2018-06-01T03:38:13.096Z,99.90
2018-06-01T03:40:41.356Z,99.90
2018-06-01T03:43:10.540Z,99.90
2018-06-01T03:45:38.036Z,99.90
2018-06-01T03:48:05.552Z,99.90
2018-06-01T03:50:33.053Z,99.90
2018-06-01T03:53:00.554Z,99.90
2018-06-01T03:55:28.072Z,99.90
2018-06-01T03:57:55.567Z,99.90
2018-06-01T04:00:23.088Z,99.90
2018-06-01T04:02:50.593Z,99.90
2018-06-01T04:05:18.107Z,99.90
2018-06-01T04:07:45.600Z,99.90
2018-06-01T04:10:13.117Z,99.90
2018-06-01T04:12:40.612Z,99.90
2018-06-01T04:15:08.109Z,99.90
2018-06-01T04:17:35.622Z,99.90
2018-06-01T04:20:03.161Z,99.90
2018-06-01T04:22:30.678Z,99.90
2018-06-01T04:24:58.176Z,99.90
2018-06-01T04:27:25.695Z,99.90
2018-06-01T04:29:53.192Z,99.90
2018-06-01T04:32:20.713Z,99.90
2018-06-01T04:34:48.208Z,99.90
2018-06-01T04:37:15.703Z,99.90
2018-06-01T04:39:43.216Z,99.90
2018-06-01T04:42:10.712Z,99.90
2018-06-01T04:44:38.228Z,99.90
2018-06-01T04:47:06.484Z,99.90
2018-06-01T04:49:34.000Z,99.90
2018-06-01T04:52:01.493Z,99.90
2018-06-01T04:54:29.012Z,99.90
2018-06-01T04:56:56.504Z,99.90
2018-06-01T04:59:23.996Z,99.90
2018-06-01T05:01:52.280Z,99.90
2018-06-01T05:04:19.776Z,99.90
2018-06-01T05:06:47.293Z,99.90
2018-06-01T05:09:14.787Z,99.90
2018-06-01T05:11:42.300Z,99.90
2018-06-01T05:14:10.560Z,99.90
2018-06-01T05:16:39.625Z,99.90
2018-06-01T05:19:07.120Z,99.90
2018-06-01T05:21:34.612Z,99.90
2018-06-01T05:24:02.133Z,99.90
2018-06-01T05:26:29.631Z,99.90
2018-06-01T05:28:57.148Z,99.90
2018-06-01T05:31:24.639Z,99.90
2018-06-01T05:33:52.132Z,99.90
2018-06-01T05:36:19.648Z,99.90
2018-06-01T05:38:47.904Z,99.90
2018-06-01T05:41:16.191Z,99.90
2018-06-01T05:43:44.450Z,99.90
2018-06-01T05:46:11.971Z,99.90
2018-06-01T05:48:39.469Z,99.90
2018-06-01T05:51:06.980Z,99.90
2018-06-01T05:53:34.494Z,99.90
2018-06-01T05:56:02.756Z,99.90
2018-06-01T05:58:30.273Z,99.90
2018-06-01T06:00:57.768Z,99.90
2018-06-01T06:03:25.260Z,99.90
2018-06-01T06:05:53.548Z,99.90
2018-06-01T06:08:21.043Z,99.90
2018-06-01T06:10:48.561Z,99.90
2018-06-01T06:13:16.145Z,99.90
2018-06-01T06:15:43.589Z,99.90
2018-06-01T06:18:11.087Z,99.90
2018-06-01T06:20:38.575Z,99.90
2018-06-01T06:23:06.863Z,99.90
2018-06-01T06:25:34.409Z,99.90
2018-06-01T06:28:01.903Z,99.90
2018-06-01T06:30:29.396Z,99.90
2018-06-01T06:32:56.908Z,99.90
2018-06-01T06:35:24.400Z,99.90
2018-06-01T06:37:51.924Z,99.90
2018-06-01T06:40:19.412Z,99.90
2018-06-01T06:42:46.908Z,99.90
2018-06-01T06:45:14.424Z,99.90
2018-06-01T06:47:41.916Z,99.90
2018-06-01T06:50:09.432Z,99.90
2018-06-01T06:52:36.933Z,99.90
2018-06-01T06:55:05.195Z,99.90
2018-06-01T06:57:32.711Z,99.90
2018-06-01T07:00:00.205Z,99.90
2018-06-01T07:02:27.720Z,99.90
2018-06-01T07:04:55.217Z,99.90
2018-06-01T07:07:22.728Z,99.90
2018-06-01T07:09:50.992Z,99.90
2018-06-01T07:12:19.284Z,99.90
2018-06-01T07:14:47.545Z,99.90
2018-06-01T07:17:15.041Z,99.90
2018-06-01T07:19:42.572Z,99.90
2018-06-01T07:22:10.828Z,99.90
2018-06-01T07:24:38.344Z,99.90
2018-06-01T07:27:05.836Z,99.90
2018-06-01T07:29:33.353Z,99.90
2018-06-01T07:32:00.848Z,99.90
2018-06-01T07:34:28.340Z,99.90
2018-06-01T07:36:56.620Z,99.90
2018-06-01T07:39:24.880Z,99.90
2018-06-01T07:41:52.400Z,99.90
2018-06-01T07:44:19.892Z,99.90
2018-06-01T07:46:47.438Z,99.90
2018-06-01T07:49:14.928Z,99.90
2018-06-01T07:51:43.198Z,99.80
2018-06-01T07:54:11.817Z,99.90
2018-06-01T07:56:39.308Z,99.80
2018-06-01T07:59:06.821Z,99.90
2018-06-01T08:01:34.316Z,99.70
2018-06-01T08:04:01.833Z,99.80
2018-06-01T08:06:30.101Z,99.10
2018-06-01T08:08:58.389Z,99.00
2018-06-01T08:11:25.967Z,99.00
2018-06-01T08:13:53.459Z,98.90
2018-06-01T08:16:20.987Z,99.00
2018-06-01T08:18:48.476Z,98.90
2018-06-01T08:21:16.008Z,98.70
2018-06-01T08:23:43.500Z,98.50
2018-06-01T08:26:11.016Z,98.20
2018-06-01T08:28:38.517Z,98.30
2018-06-01T08:31:06.008Z,98.50
2018-06-01T08:33:34.291Z,98.40
2018-06-01T08:36:02.550Z,98.10
2018-06-01T08:38:30.071Z,98.10
2018-06-01T08:40:57.568Z,98.00
2018-06-01T08:43:25.084Z,98.00
2018-06-01T08:45:52.592Z,98.20
2018-06-01T08:48:20.872Z,98.20
2018-06-01T08:50:48.368Z,98.20
2018-06-01T08:53:15.864Z,98.60
2018-06-01T08:55:43.376Z,98.10
2018-06-01T08:58:10.872Z,97.80
2018-06-01T09:00:38.438Z,97.50
2018-06-01T09:03:06.730Z,96.50
2018-06-01T09:05:34.244Z,96.40
2018-06-01T09:08:01.736Z,96.80
2018-06-01T09:10:29.233Z,97.00
2018-06-01T09:12:56.748Z,96.30
2018-06-01T09:15:24.237Z,95.90
2018-06-01T09:17:52.527Z,96.40
2018-06-01T09:20:20.029Z,96.40
2018-06-01T09:22:47.594Z,95.70
2018-06-01T09:25:15.132Z,95.60
2018-06-01T09:27:42.647Z,95.50
2018-06-01T09:30:10.908Z,95.30
2018-06-01T09:32:38.399Z,95.20
2018-06-01T09:35:05.916Z,95.60
2018-06-01T09:37:33.412Z,95.50
2018-06-01T09:40:01.697Z,95.90
2018-06-01T09:42:29.590Z,95.90
2018-06-01T09:44:57.104Z,95.90
2018-06-01T09:47:25.363Z,96.10
2018-06-01T09:49:52.881Z,96.10
2018-06-01T09:52:20.377Z,95.00
2018-06-01T09:54:47.876Z,95.80
2018-06-01T09:57:15.388Z,94.50
2018-06-01T09:59:42.881Z,94.50
2018-06-01T10:02:11.160Z,94.10
2018-06-01T10:04:38.656Z,94.10
2018-06-01T10:07:06.168Z,94.00
2018-06-01T10:09:34.428Z,92.90
2018-06-01T10:12:01.946Z,92.90
2018-06-01T10:14:29.436Z,93.10
2018-06-01T10:16:56.952Z,93.60
2018-06-01T10:19:24.448Z,93.00
2018-06-01T10:21:51.941Z,93.10
2018-06-01T10:24:20.221Z,94.00
2018-06-01T10:26:48.479Z,94.60
2018-06-01T10:29:16.764Z,95.10
2018-06-01T10:31:45.024Z,95.30
2018-06-01T10:34:12.540Z,95.30
2018-06-01T10:36:40.032Z,95.20
2018-06-01T10:39:07.526Z,95.00
2018-06-01T10:41:35.801Z,92.60
2018-06-01T10:44:04.060Z,92.70
2018-06-01T10:46:32.340Z,91.50
2018-06-01T10:49:00.596Z,91.70
2018-06-01T10:51:28.116Z,91.60
2018-06-01T10:53:55.612Z,91.50
2018-06-01T10:56:23.124Z,91.50
2018-06-01T10:58:50.616Z,91.30
2018-06-01T11:01:18.110Z,91.60
2018-06-01T11:03:46.389Z,91.40
2018-06-01T11:06:14.655Z,91.60
2018-06-01T11:08:42.944Z,91.70
2018-06-01T11:11:11.210Z,91.80
2018-06-01T11:13:39.519Z,92.10
2018-06-01T11:16:07.012Z,92.10
2018-06-01T11:18:34.499Z,92.00
2018-06-01T11:21:02.019Z,91.60
2018-06-01T11:23:29.512Z,91.60
2018-06-01T11:25:57.028Z,90.90
2018-06-01T11:28:24.524Z,90.00
2018-06-01T11:30:52.040Z,90.20
2018-06-01T11:33:19.536Z,88.90
2018-06-01T11:35:47.063Z,89.60
2018-06-01T11:38:14.560Z,87.50
2018-06-01T11:40:42.057Z,86.60
2018-06-01T11:43:09.568Z,84.30
2018-06-01T11:45:37.068Z,84.90
2018-06-01T11:48:04.586Z,84.40
2018-06-01T11:50:32.076Z,84.90
2018-06-01T11:53:00.356Z,84.40
2018-06-01T11:55:28.616Z,83.80
2018-06-01T11:57:56.132Z,83.70
2018-06-01T12:00:23.626Z,84.30
2018-06-01T12:02:51.120Z,83.20
2018-06-01T12:05:18.632Z,80.60
2018-06-01T12:07:46.124Z,80.30
2018-06-01T12:10:14.405Z,80.70
2018-06-01T12:12:42.664Z,81.20
2018-06-01T12:15:10.944Z,81.30
2018-06-01T12:17:39.217Z,82.70
2018-06-01T12:20:07.484Z,80.00
2018-06-01T12:22:35.000Z,79.90
2018-06-01T12:25:02.495Z,78.50
2018-06-01T12:27:30.016Z,73.10
2018-06-01T12:29:57.508Z,73.50
2018-06-01T12:32:25.006Z,71.50
2018-06-01T12:34:52.528Z,66.30
2018-06-01T12:37:20.021Z,66.30
2018-06-01T12:39:48.300Z,59.10
2018-06-01T12:42:15.792Z,59.00
2018-06-01T12:44:43.303Z,54.90
2018-06-01T12:47:11.561Z,50.60
2018-06-01T12:49:39.077Z,50.50
2018-06-01T12:52:06.574Z,46.50
2018-06-01T12:54:34.067Z,46.80
2018-06-01T12:57:01.591Z,50.00
2018-06-01T12:59:29.085Z,53.30
2018-06-01T13:01:56.604Z,55.80
2018-06-01T13:04:24.096Z,54.90
2018-06-01T13:06:52.380Z,57.10
2018-06-01T13:09:19.881Z,57.10
2018-06-01T13:11:47.376Z,57.80
2018-06-01T13:14:15.662Z,57.70
2018-06-01T13:16:43.920Z,56.20
2018-06-01T13:19:11.440Z,56.20
2018-06-01T13:21:38.941Z,57.10
2018-06-01T13:24:07.231Z,59.10
2018-06-01T13:26:35.497Z,57.80
2018-06-01T13:29:03.752Z,57.60
2018-06-01T13:31:31.269Z,57.50
2018-06-01T13:33:58.760Z,58.90
2018-06-01T13:36:26.277Z,59.80
2018-06-01T13:38:53.772Z,59.40
2018-06-01T13:41:21.288Z,56.30
2018-06-01T13:43:48.784Z,54.00
2018-06-01T13:46:16.276Z,50.90
2018-06-01T13:48:43.787Z,49.90
2018-06-01T13:51:11.276Z,48.90
2018-06-01T13:53:38.808Z,49.70
2018-06-01T13:56:06.300Z,52.20
2018-06-01T13:58:33.820Z,54.50
2018-06-01T14:01:01.313Z,55.30
2018-06-01T14:03:28.820Z,55.60
2018-06-01T14:05:56.336Z,55.10
2018-06-01T14:08:23.835Z,57.20
2018-06-01T14:10:51.357Z,56.40
2018-06-01T14:13:18.849Z,57.20
2018-06-01T14:15:46.371Z,57.60
2018-06-01T14:18:13.868Z,56.30
2018-06-01T14:20:41.360Z,57.30
2018-06-01T14:23:08.876Z,56.80
2018-06-01T14:25:37.136Z,58.50
2018-06-01T14:28:05.421Z,59.30
2018-06-01T14:30:33.688Z,61.30
2018-06-01T14:33:01.200Z,61.20
2018-06-01T14:35:28.695Z,61.70
2018-06-01T14:37:56.248Z,61.80
2018-06-01T14:40:23.773Z,61.60
2018-06-01T14:42:52.006Z,59.90
2018-06-01T14:45:20.292Z,60.10
2018-06-01T14:47:48.552Z,60.00
2018-06-01T14:50:16.068Z,59.90
2018-06-01T14:52:43.560Z,61.00
2018-06-01T14:55:11.079Z,59.70
2018-06-01T14:57:38.576Z,59.80
2018-06-01T15:00:06.078Z,58.80
2018-06-01T15:02:33.595Z,59.30
2018-06-01T15:05:01.092Z,59.30
2018-06-01T15:07:28.608Z,59.00
2018-06-01T15:09:56.099Z,59.30
2018-06-01T15:12:24.381Z,58.70
2018-06-01T15:14:51.877Z,58.70
2018-06-01T15:17:19.368Z,59.70
2018-06-01T15:19:46.884Z,58.90
2018-06-01T15:22:14.384Z,58.00
2018-06-01T15:24:41.900Z,57.50
2018-06-01T15:27:09.395Z,58.50
2018-06-01T15:29:36.925Z,58.00
2018-06-01T15:32:04.420Z,58.20
2018-06-01T15:34:31.915Z,59.10
2018-06-01T15:36:59.440Z,57.20
2018-06-01T15:39:27.699Z,58.80
2018-06-01T15:41:55.213Z,58.20
2018-06-01T15:44:22.708Z,59.10
2018-06-01T15:46:50.221Z,58.70
2018-06-01T15:49:17.712Z,58.90
2018-06-01T15:51:45.229Z,58.60
2018-06-01T15:54:12.724Z,58.40
2018-06-01T15:56:40.216Z,58.60
2018-06-01T15:59:07.732Z,59.00
2018-06-01T16:01:35.225Z,58.60
2018-06-01T16:04:02.743Z,58.90
2018-06-01T16:06:30.237Z,59.40
2018-06-01T16:08:57.758Z,59.70
2018-06-01T16:11:25.260Z,59.90
2018-06-01T16:13:52.757Z,60.90
2018-06-01T16:16:20.273Z,60.80
2018-06-01T16:18:47.765Z,61.40
2018-06-01T16:21:16.043Z,61.20
2018-06-01T16:23:44.305Z,61.50
2018-06-01T16:26:12.586Z,62.50
2018-06-01T16:28:40.844Z,61.90
2018-06-01T16:31:08.337Z,61.70
2018-06-01T16:33:35.853Z,61.50
2018-06-01T16:36:03.353Z,61.50
2018-06-01T16:38:31.631Z,62.20
2018-06-01T16:40:59.128Z,62.20
2018-06-01T16:43:26.639Z,62.40
2018-06-01T16:45:54.896Z,63.90
2018-06-01T16:48:22.390Z,63.90
2018-06-01T16:50:49.905Z,64.10
2018-06-01T16:53:17.400Z,65.80
2018-06-01T16:55:44.916Z,66.10
2018-06-01T16:58:12.409Z,66.80
2018-06-01T17:00:40.690Z,68.30
2018-06-01T17:03:08.183Z,68.30
2018-06-01T17:05:35.697Z,68.60
2018-06-01T17:08:04.013Z,68.40
2018-06-01T17:10:32.244Z,68.60
2018-06-01T17:13:00.524Z,68.80
2018-06-01T17:15:28.827Z,70.40
2018-06-01T17:17:57.076Z,70.00
2018-06-01T17:20:25.331Z,70.30
2018-06-01T17:22:52.852Z,70.20
2018-06-01T17:25:20.348Z,69.90
2018-06-01T17:27:47.840Z,69.80
2018-06-01T17:30:16.138Z,70.50
2018-06-01T17:32:43.632Z,70.50
2018-06-01T17:35:11.148Z,70.30
2018-06-01T17:37:38.635Z,70.50
2018-06-01T17:40:06.160Z,70.30
2018-06-01T17:42:33.652Z,70.70
2018-06-01T17:45:01.145Z,70.80
2018-06-01T17:47:29.432Z,70.80
2018-06-01T17:49:57.688Z,71.00
2018-06-01T17:52:25.199Z,70.90
2018-06-01T17:54:52.692Z,71.50
2018-06-01T17:57:20.203Z,71.20
2018-06-01T17:59:47.696Z,71.80
2018-06-01T18:02:15.189Z,72.10
2018-06-01T18:04:42.708Z,72.80
2018-06-01T18:07:10.196Z,73.80
2018-06-01T18:09:37.708Z,73.40
2018-06-01T18:12:05.200Z,75.70
2018-06-01T18:14:32.721Z,75.90
2018-06-01T18:17:00.220Z,75.70
2018-06-01T18:19:27.712Z,77.40
2018-06-01T18:21:55.997Z,77.20
2018-06-01T18:24:24.265Z,77.90
2018-06-01T18:26:52.548Z,79.00
2018-06-01T18:29:20.808Z,80.00
2018-06-01T18:31:49.072Z,80.80
2018-06-01T18:34:16.589Z,80.70
2018-06-01T18:36:44.084Z,81.50
2018-06-01T18:39:11.600Z,82.10
2018-06-01T18:41:39.092Z,83.40
2018-06-01T18:44:06.646Z,83.50
2018-06-01T18:46:34.120Z,84.00
2018-06-01T18:49:01.639Z,84.40
2018-06-01T18:51:29.128Z,85.10
2018-06-01T18:53:56.621Z,85.60
2018-06-01T18:56:24.901Z,87.20
2018-06-01T18:58:53.160Z,87.00
2018-06-01T19:01:20.680Z,86.90
2018-06-01T19:03:48.173Z,88.20
2018-06-01T19:06:15.696Z,88.60
2018-06-01T19:08:43.192Z,89.30
2018-06-01T19:11:10.693Z,89.50
2018-06-01T19:13:38.200Z,90.00
2018-06-01T19:16:06.457Z,90.30
2018-06-01T19:18:33.973Z,90.30
2018-06-01T19:21:01.468Z,90.50
2018-06-01T19:23:28.988Z,90.80
2018-06-01T19:25:56.479Z,91.00
2018-06-01T19:28:23.976Z,91.30
2018-06-01T19:30:51.491Z,91.60
2018-06-01T19:33:18.980Z,91.80
2018-06-01T19:35:46.491Z,92.10
2018-06-01T19:38:13.989Z,92.30
2018-06-01T19:40:41.508Z,92.60
2018-06-01T19:43:09.009Z,92.90
2018-06-01T19:45:36.500Z,93.10
2018-06-01T19:48:04.784Z,93.50
2018-06-01T19:50:33.050Z,93.60
2018-06-01T19:53:00.565Z,93.60
2018-06-01T19:55:28.064Z,93.70
2018-06-01T19:57:56.348Z,93.90
2018-06-01T20:00:24.609Z,93.90
2018-06-01T20:02:52.099Z,93.90
2018-06-01T20:05:19.611Z,94.10
2018-06-01T20:07:47.104Z,94.20
2018-06-01T20:10:15.384Z,94.50
2018-06-01T20:12:43.645Z,94.50
2018-06-01T20:15:11.928Z,94.40
2018-06-01T20:17:40.188Z,94.60
2018-06-01T20:20:07.704Z,94.60
2018-06-01T20:22:35.194Z,94.70
2018-06-01T20:25:02.688Z,94.90
2018-06-01T20:27:30.968Z,95.10
2018-06-01T20:29:58.462Z,95.10
2018-06-01T20:32:25.981Z,95.20
2018-06-01T20:34:54.239Z,95.40
2018-06-01T20:37:21.756Z,95.40
2018-06-01T20:39:49.249Z,95.50
2018-06-01T20:42:16.765Z,95.70
2018-06-01T20:44:44.256Z,96.20
2018-06-01T20:47:11.773Z,96.70
2018-06-01T20:49:39.268Z,97.50
2018-06-01T20:52:06.760Z,98.00
2018-06-01T20:54:35.040Z,98.90
2018-06-01T20:57:03.308Z,99.30
2018-06-01T20:59:31.603Z,99.50
2018-06-01T21:01:59.096Z,99.50
2018-06-01T21:04:26.625Z,99.70
2018-06-01T21:06:54.117Z,99.90
2018-06-01T21:09:21.614Z,99.90
2018-06-01T21:11:49.913Z,99.90
2018-06-01T21:14:17.417Z,99.90
2018-06-01T21:16:44.940Z,99.90
2018-06-01T21:19:12.435Z,99.90
2018-06-01T21:21:39.953Z,99.90
2018-06-01T21:24:07.444Z,99.90
2018-06-01T21:26:34.941Z,99.90
2018-06-01T21:29:03.225Z,99.90
2018-06-01T21:31:31.536Z,99.90
2018-06-01T21:33:59.060Z,99.90
2018-06-01T21:36:27.320Z,99.90
2018-06-01T21:38:54.836Z,99.90
2018-06-01T21:41:22.337Z,99.90
2018-06-01T21:43:49.834Z,99.90
2018-06-01T21:46:17.348Z,99.90
2018-06-01T21:48:44.852Z,99.90
2018-06-01T21:51:12.372Z,99.90
2018-06-01T21:53:39.864Z,99.90
2018-06-01T21:56:07.380Z,99.90
2018-06-01T21:58:34.872Z,99.90
2018-06-01T22:01:03.147Z,99.90
2018-06-01T22:03:31.410Z,99.90
2018-06-01T22:05:59.691Z,99.90
2018-06-01T22:08:27.947Z,99.90
2018-06-01T22:10:55.471Z,99.90
2018-06-01T22:13:22.965Z,99.90
2018-06-01T22:15:50.460Z,99.90
2018-06-01T22:18:17.977Z,99.90
2018-06-01T22:20:45.472Z,99.90
2018-06-01T22:23:13.752Z,99.90
2018-06-01T22:25:41.264Z,99.90
2018-06-01T22:28:08.775Z,99.90
2018-06-01T22:30:36.267Z,99.90
2018-06-01T22:33:03.780Z,99.90
2018-06-01T22:35:32.039Z,99.90
2018-06-01T22:37:59.561Z,99.90
2018-06-01T22:40:27.059Z,99.90
2018-06-01T22:42:55.332Z,99.90
2018-06-01T22:45:23.622Z,99.90
2018-06-01T22:47:51.880Z,99.90
2018-06-01T22:50:19.495Z,99.90
2018-06-01T22:52:46.993Z,99.90
2018-06-01T22:55:14.514Z,99.90
2018-06-01T22:57:42.012Z,99.90
2018-06-01T23:00:09.526Z,99.90
2018-06-01T23:02:37.021Z,99.90
2018-06-01T23:05:04.516Z,99.90
2018-06-01T23:07:32.804Z,99.90
2018-06-01T23:10:00.296Z,99.90
2018-06-01T23:12:27.808Z,99.90
2018-06-01T23:14:56.074Z,99.90
2018-06-01T23:17:24.356Z,99.90
2018-06-01T23:19:52.740Z,99.90
2018-06-01T23:22:20.892Z,99.90
2018-06-01T23:24:48.408Z,99.90
2018-06-01T23:27:15.899Z,99.90
2018-06-01T23:29:43.415Z,99.90
2018-06-01T23:32:10.909Z,99.90
2018-06-01T23:34:38.668Z,99.90
2018-06-01T23:37:06.168Z,99.90
2018-06-01T23:39:34.457Z,99.90
2018-06-01T23:42:02.716Z,99.90
2018-06-01T23:44:30.984Z,99.90
2018-06-01T23:46:58.502Z,99.90
2018-06-01T23:49:26.003Z,99.90
2018-06-01T23:51:54.288Z,99.90
2018-06-01T23:54:22.552Z,99.90
2018-06-01T23:56:50.836Z,99.90
2018-06-01T23:59:19.096Z,99.90
